METAR AND TAF INFORMATION
METAR FOR LGSM
ADDS - METARS form results

(0626 UTC 27 April 2018)
Data provider http://aviationweather.gov/adds/metars/
 
METAR text: LGSM 270620Z 36007KT CAVOK 17/11 Q1011
Conditions at: LGSM (SAMOS AIRPORT , GR) observed 0620 UTC 27 April 2018
Temperature: 17.0°C (63°F)
Dewpoint: 11.0°C (52°F) [RH = 68%]
Pressure (altimeter): 29.85 inches Hg (1011.0 mb)
Winds: from the N (360 degrees) at 8 MPH (7 knots; 3.6 m/s)
Visibility: 6 or more miles (10+ km)
Ceiling: ceiling and visibility are OK
Clouds: unknown
Weather: no significant weather observed at this time

METAR text: LGSM 270550Z 05007KT CAVOK 16/10 Q1010
Conditions at: LGSM (SAMOS AIRPORT , GR) observed 0550 UTC 27 April 2018
Temperature: 16.0°C (61°F)
Dewpoint: 10.0°C (50°F) [RH = 68%]
Pressure (altimeter): 29.82 inches Hg (1010.0 mb)
Winds: from the NE (50 degrees) at 8 MPH (7 knots; 3.6 m/s)
Visibility: 6 or more miles (10+ km)
Ceiling: ceiling and visibility are OK
Clouds: unknown
Weather: no significant weather observed at this time

Forecast for: LGSM (SAMOS AIRPORT , GR)
Text: TAF LGSM 270500Z 2706/2715 03010KT 9999 FEW020
Forecast period: 0600 to 1500 UTC 27 April 2018
Forecast type: FROM: standard forecast or significant change
Winds: from the NNE (30 degrees) at 12 MPH (10 knots; 5.2 m/s)
Visibility: 6 or more miles (10+ km)
Clouds: few clouds at 2000 feet AGL
Weather: no significant weather forecast for this period

 AIRPORT MAP

 RUNWAY INFORMATION
Runway 09 Runway length 6706 ft Runway width 148 ft
Runway elevation 20 ft Runway displaced threshold 230 ft Runway heading 94
Runway 27 Runway length 6706 ft Runway width 148 ft
Runway elevation 10 ft Runway displaced threshold 0 ft Runway heading 274

 AIRPORT FREQUENCIES
Type A/G Name RDO Frequency 563.7 MHZ
Type APP Name APP Frequency 122.1 MHZ
Type TWR Name TWR Frequency 122.1 MHZ

 AIRPORT NEAR NAVIGATION AIDS
Type VOR-DME Name Samos Frequency 111600 KHZ
Type NDB Name Samos Frequency 375 KHZ